Aérodrome :
LOGIN :

S'inscrire | Disclaimer

   EN    FR    IT 

 










Légende :    VFR   VFR Marginal   IFR   IFR Intensif   IFR Très Intensif
Visi : 
Plafond : 
>= 8 km
>= 3000ft
5 à 8 km
1000 à 3000 ft
1500m à 5 km
500 à 1000 ft
800 à 1500m
200 à 500 ft
< 800m
< 200 ft
Symboles :   Orages  Brouillard  Fortes neiges  Fortes précipitations  Vent > 20 kt
SIGMETs :   Divers  Orages  Givrage  Turbulence  Onde Orograph.  Cendres Volcan.






- Altitude de l'aérodrome : 412 ft
- Code IATA : ORE


LFOJ - Orleans

DERNIER METAR :
  • 231500Z AUTO 23021KT 9999 OVC014 12/10 Q1026 BECMG 23018G28KT

METARs EXPIRÉS :
  • 231430Z AUTO 23021KT 9999 OVC014 12/10 Q1026 BECMG 23018G28KT
  • 231400Z AUTO 23019KT 9999 OVC014 12/10 Q1026
  • 231330Z AUTO 23019KT 9999 OVC014 12/10 Q1026
  • 231300Z AUTO 23024KT 9999 OVC014 12/09 Q1026
  • 231230Z AUTO 23023KT 9999 OVC014 12/10 Q1026
  • 231200Z AUTO 23022KT 9999 OVC013 11/09 Q1027

TAF TAF LFOJ
Valide du 23 à 15h jusqu'au 24 à 15h UTC


231400Z 2315/2415 23018G28KT 9999 OVC012
BECMG 2317/2319 23017KT OVC004
TEMPO 2405/2412 4000 -RADZ
BECMG 2408/2410 23020G30KT OVC010



MET'MAP, la Météo Aéronautique d'un coup d'oeil ! - Copyright ORBIFLY Décembre 2007 - Disclaimer

ORBIFLY MET'MAP TEAM :

Programmation & Développement : Alexandra Zaïnal
Sur une idée originale de : Baudouin d'Aumeries
Assistance à la programmation : Marc-Olivier Méhu
Soutien technique & logistique : Manuel Goepfert

Contact : metmap@orbifly.com




SOURCES & CREDITS :

   NOAA